N65DT KFSD-KSHR
Flight info
| Callsign | N65DT |
|---|---|
| Flight time | 2h 31m |
| Altitude | 14000 |
| Route | KUBKE GLLAS FLOTR |
| Aircraft | AEST/L-SDFGRY/S |
Departure
| Time | 2026-05-04 05:33 |
|---|---|
| Airport | Sioux Falls Regional Airport (KFSD) |
Arrival
| Time | 2026-05-04 08:04 |
|---|---|
| Airport | Sheridan County Airport (KSHR) |
| Time | Latitude | Longitude | Altitude | Speed | Heading |
|---|---|---|---|---|---|
| 2026-05-04 05:31 | 43.59209 | -96.73314 | 1426 ft | 5 kts | 306° |
| 2026-05-04 05:31 | 43.59212 | -96.73321 | 1426 ft | 4 kts | 305° |
| 2026-05-04 05:32 | 43.59255 | -96.73410 | 1426 ft | 12 kts | 297° |
| 2026-05-04 05:32 | 43.59168 | -96.73546 | 1424 ft | 48 kts | 216° |
| 2026-05-04 05:32 | 43.58719 | -96.73990 | 1426 ft | 103 kts | 215° |
| 2026-05-04 05:33 | 43.57322 | -96.75365 | 1830 ft | 137 kts | 234° |
| 2026-05-04 05:33 | 43.57013 | -96.76578 | 2212 ft | 134 kts | 277° |
| 2026-05-04 05:33 | 43.57178 | -96.77850 | 2489 ft | 138 kts | 288° |
| 2026-05-04 05:33 | 43.57325 | -96.79170 | 2777 ft | 142 kts | 286° |
| 2026-05-04 05:34 | 43.57495 | -96.80492 | 3106 ft | 142 kts | 290° |
| 2026-05-04 05:34 | 43.57703 | -96.81819 | 3444 ft | 141 kts | 293° |
| 2026-05-04 05:34 | 43.57949 | -96.83118 | 3757 ft | 139 kts | 295° |
| 2026-05-04 05:34 | 43.58208 | -96.84387 | 4042 ft | 137 kts | 295° |
| 2026-05-04 05:35 | 43.58487 | -96.85654 | 4303 ft | 139 kts | 293° |
| 2026-05-04 05:35 | 43.58736 | -96.86951 | 4590 ft | 140 kts | 289° |
| 2026-05-04 05:35 | 43.58937 | -96.88261 | 4872 ft | 140 kts | 287° |
| 2026-05-04 05:35 | 43.59109 | -96.89582 | 5152 ft | 140 kts | 287° |
| 2026-05-04 05:36 | 43.59274 | -96.90903 | 5407 ft | 140 kts | 287° |
| 2026-05-04 05:36 | 43.59461 | -96.92214 | 5675 ft | 139 kts | 288° |
| 2026-05-04 05:36 | 43.59669 | -96.93506 | 5945 ft | 138 kts | 289° |
| 2026-05-04 05:36 | 43.59884 | -96.94786 | 6196 ft | 136 kts | 289° |
| 2026-05-04 05:37 | 43.60096 | -96.96055 | 6441 ft | 135 kts | 289° |
| 2026-05-04 05:37 | 43.60305 | -96.97318 | 6679 ft | 135 kts | 289° |
| 2026-05-04 05:37 | 43.60516 | -96.98581 | 6909 ft | 135 kts | 289° |
| 2026-05-04 05:38 | 43.60927 | -97.01141 | 7345 ft | 138 kts | 288° |
| 2026-05-04 05:38 | 43.61129 | -97.02443 | 7567 ft | 139 kts | 288° |
| 2026-05-04 05:38 | 43.61332 | -97.03757 | 7780 ft | 141 kts | 287° |
| 2026-05-04 05:38 | 43.61526 | -97.05080 | 8008 ft | 140 kts | 287° |
| 2026-05-04 05:39 | 43.61724 | -97.06390 | 8209 ft | 140 kts | 288° |
| 2026-05-04 05:39 | 43.62148 | -97.08996 | 8602 ft | 141 kts | 289° |
| 2026-05-04 05:39 | 43.62368 | -97.10314 | 8794 ft | 141 kts | 289° |
| 2026-05-04 05:40 | 43.62798 | -97.12971 | 9156 ft | 142 kts | 288° |
| 2026-05-04 05:40 | 43.63007 | -97.14313 | 9324 ft | 144 kts | 288° |
| 2026-05-04 05:40 | 43.63217 | -97.15668 | 9502 ft | 145 kts | 288° |
| 2026-05-04 05:41 | 43.63431 | -97.17031 | 9672 ft | 146 kts | 288° |
| 2026-05-04 05:41 | 43.63645 | -97.18398 | 9841 ft | 146 kts | 287° |
| 2026-05-04 05:41 | 43.63860 | -97.19776 | 9986 ft | 147 kts | 287° |
| 2026-05-04 05:41 | 43.64075 | -97.21155 | 10130 ft | 147 kts | 287° |
| 2026-05-04 05:42 | 43.64292 | -97.22537 | 10277 ft | 147 kts | 287° |
| 2026-05-04 05:42 | 43.64507 | -97.23917 | 10410 ft | 147 kts | 287° |
| 2026-05-04 05:42 | 43.64722 | -97.25297 | 10556 ft | 147 kts | 287° |
| 2026-05-04 05:42 | 43.64935 | -97.26655 | 10691 ft | 147 kts | 287° |
| 2026-05-04 05:43 | 43.65155 | -97.28048 | 10822 ft | 147 kts | 287° |
| 2026-05-04 05:43 | 43.65372 | -97.29424 | 10950 ft | 147 kts | 287° |
| 2026-05-04 05:43 | 43.65588 | -97.30804 | 11074 ft | 147 kts | 287° |
| 2026-05-04 05:45 | 43.67111 | -97.40599 | 11816 ft | 151 kts | 287° |
| 2026-05-04 05:45 | 43.67331 | -97.42016 | 11925 ft | 151 kts | 287° |
| 2026-05-04 05:47 | 43.68862 | -97.51923 | 12555 ft | 151 kts | 287° |
| 2026-05-04 05:47 | 43.69080 | -97.53343 | 12645 ft | 151 kts | 287° |
| 2026-05-04 05:47 | 43.69298 | -97.54762 | 12727 ft | 151 kts | 287° |
| 2026-05-04 05:48 | 43.69517 | -97.56184 | 12809 ft | 151 kts | 287° |
| 2026-05-04 05:48 | 43.69736 | -97.57607 | 12882 ft | 151 kts | 287° |
| 2026-05-04 05:48 | 43.69955 | -97.59030 | 12958 ft | 151 kts | 287° |
| 2026-05-04 05:48 | 43.70171 | -97.60448 | 13035 ft | 150 kts | 286° |
| 2026-05-04 05:49 | 43.70383 | -97.61859 | 13105 ft | 150 kts | 287° |
| 2026-05-04 05:49 | 43.70596 | -97.63270 | 13166 ft | 150 kts | 287° |
| 2026-05-04 05:49 | 43.70809 | -97.64672 | 13269 ft | 148 kts | 287° |
| 2026-05-04 05:49 | 43.71021 | -97.66058 | 13358 ft | 147 kts | 287° |
| 2026-05-04 05:51 | 43.72460 | -97.75530 | 13860 ft | 143 kts | 285° |
| 2026-05-04 05:51 | 43.72649 | -97.76877 | 13913 ft | 143 kts | 286° |
| 2026-05-04 05:52 | 43.72844 | -97.78218 | 13970 ft | 142 kts | 287° |
| 2026-05-04 05:52 | 43.73047 | -97.79552 | 14026 ft | 142 kts | 287° |
| 2026-05-04 05:52 | 43.73255 | -97.80881 | 14073 ft | 142 kts | 287° |
| 2026-05-04 05:52 | 43.73471 | -97.82231 | 14068 ft | 146 kts | 287° |
| 2026-05-04 05:53 | 43.73694 | -97.83611 | 14063 ft | 149 kts | 287° |
| 2026-05-04 05:54 | 43.75167 | -97.93490 | 14056 ft | 150 kts | 287° |
| 2026-05-04 05:55 | 43.75379 | -97.94904 | 14060 ft | 151 kts | 286° |
| 2026-05-04 05:55 | 43.75596 | -97.96327 | 14056 ft | 151 kts | 286° |
| 2026-05-04 05:55 | 43.75813 | -97.97744 | 14043 ft | 149 kts | 286° |
| 2026-05-04 05:55 | 43.76025 | -97.99134 | 14051 ft | 147 kts | 286° |
| 2026-05-04 05:56 | 43.76245 | -98.00561 | 13907 ft | 157 kts | 286° |
| 2026-05-04 05:56 | 43.76480 | -98.02072 | 13764 ft | 165 kts | 286° |
| 2026-05-04 05:56 | 43.76719 | -98.03635 | 13669 ft | 167 kts | 286° |
| 2026-05-04 05:56 | 43.76957 | -98.05229 | 13604 ft | 171 kts | 285° |
| 2026-05-04 05:57 | 43.77194 | -98.06858 | 13547 ft | 174 kts | 285° |
| 2026-05-04 05:57 | 43.77430 | -98.08512 | 13506 ft | 176 kts | 285° |
| 2026-05-04 05:57 | 43.77663 | -98.10145 | 13524 ft | 174 kts | 285° |
| 2026-05-04 05:57 | 43.77899 | -98.11784 | 13533 ft | 173 kts | 285° |
| 2026-05-04 05:58 | 43.78138 | -98.13418 | 13533 ft | 173 kts | 285° |
| 2026-05-04 05:58 | 43.78381 | -98.15051 | 13527 ft | 173 kts | 285° |
| 2026-05-04 05:58 | 43.78627 | -98.16675 | 13523 ft | 173 kts | 285° |
| 2026-05-04 05:58 | 43.78878 | -98.18322 | 13394 ft | 179 kts | 286° |
| 2026-05-04 05:59 | 43.79144 | -98.20050 | 13201 ft | 188 kts | 285° |
| 2026-05-04 05:59 | 43.79417 | -98.21850 | 13006 ft | 194 kts | 285° |
| 2026-05-04 05:59 | 43.79690 | -98.23707 | 12814 ft | 199 kts | 285° |
| 2026-05-04 05:59 | 43.79965 | -98.25609 | 12604 ft | 204 kts | 285° |
| 2026-05-04 06:00 | 43.80241 | -98.27542 | 12497 ft | 203 kts | 284° |
| 2026-05-04 06:00 | 43.80506 | -98.29419 | 12524 ft | 196 kts | 284° |
| 2026-05-04 06:00 | 43.80765 | -98.31245 | 12536 ft | 192 kts | 285° |
| 2026-05-04 06:00 | 43.81025 | -98.33044 | 12522 ft | 189 kts | 285° |
| 2026-05-04 06:01 | 43.81197 | -98.34219 | 12531 ft | 187 kts | 285° |
| 2026-05-04 06:01 | 43.81454 | -98.35954 | 12520 ft | 181 kts | 285° |
| 2026-05-04 06:03 | 43.83149 | -98.47607 | 12525 ft | 174 kts | 284° |
| 2026-05-04 06:03 | 43.83369 | -98.49255 | 12527 ft | 174 kts | 284° |
| 2026-05-04 06:05 | 43.85064 | -98.60695 | 12524 ft | 173 kts | 285° |
| 2026-05-04 06:05 | 43.85525 | -98.63974 | 12518 ft | 173 kts | 285° |
| 2026-05-04 06:05 | 43.85754 | -98.65616 | 12515 ft | 173 kts | 285° |
| 2026-05-04 06:06 | 43.85985 | -98.67252 | 12526 ft | 173 kts | 285° |
| 2026-05-04 06:06 | 43.86218 | -98.68889 | 12525 ft | 173 kts | 285° |
| 2026-05-04 06:06 | 43.86453 | -98.70523 | 12519 ft | 173 kts | 285° |
| 2026-05-04 06:06 | 43.86688 | -98.72156 | 12513 ft | 172 kts | 285° |
| 2026-05-04 06:07 | 43.86921 | -98.73766 | 12523 ft | 170 kts | 285° |
| 2026-05-04 06:07 | 43.87151 | -98.75370 | 12524 ft | 169 kts | 285° |
| 2026-05-04 06:07 | 43.87379 | -98.76971 | 12525 ft | 170 kts | 285° |
| 2026-05-04 06:07 | 43.87606 | -98.78578 | 12525 ft | 170 kts | 285° |
| 2026-05-04 06:08 | 43.87833 | -98.80186 | 12529 ft | 170 kts | 285° |
| 2026-05-04 06:08 | 43.88062 | -98.81797 | 12526 ft | 171 kts | 285° |
| 2026-05-04 06:08 | 43.88292 | -98.83414 | 12526 ft | 171 kts | 285° |
| 2026-05-04 06:08 | 43.88519 | -98.85017 | 12530 ft | 173 kts | 285° |
| 2026-05-04 06:09 | 43.88754 | -98.86664 | 12524 ft | 175 kts | 284° |
| 2026-05-04 06:09 | 43.88989 | -98.88318 | 12522 ft | 175 kts | 284° |
| 2026-05-04 06:11 | 43.90607 | -98.99885 | 12529 ft | 174 kts | 284° |
| 2026-05-04 06:11 | 43.90838 | -99.01534 | 12528 ft | 174 kts | 284° |
| 2026-05-04 06:13 | 43.92432 | -99.13003 | 12523 ft | 171 kts | 284° |
| 2026-05-04 06:14 | 43.93755 | -99.22743 | 12525 ft | 172 kts | 284° |
| 2026-05-04 06:14 | 43.93983 | -99.24372 | 12530 ft | 172 kts | 285° |
| 2026-05-04 06:15 | 43.94217 | -99.26000 | 12530 ft | 172 kts | 285° |
| 2026-05-04 06:15 | 43.94452 | -99.27628 | 12525 ft | 172 kts | 285° |
| 2026-05-04 06:15 | 43.94681 | -99.29238 | 12520 ft | 172 kts | 285° |
| 2026-05-04 06:15 | 43.94913 | -99.30893 | 12523 ft | 172 kts | 284° |
| 2026-05-04 06:16 | 43.95135 | -99.32504 | 12518 ft | 172 kts | 284° |
| 2026-05-04 06:16 | 43.95356 | -99.34137 | 12521 ft | 172 kts | 284° |
| 2026-05-04 06:16 | 43.95577 | -99.35771 | 12514 ft | 172 kts | 284° |
| 2026-05-04 06:16 | 43.95796 | -99.37403 | 12518 ft | 172 kts | 284° |
| 2026-05-04 06:17 | 43.96016 | -99.39035 | 12517 ft | 172 kts | 284° |
| 2026-05-04 06:17 | 43.96237 | -99.40665 | 12503 ft | 172 kts | 284° |
| 2026-05-04 06:17 | 43.96460 | -99.42298 | 12517 ft | 172 kts | 284° |
| 2026-05-04 06:17 | 43.96681 | -99.43928 | 12517 ft | 172 kts | 284° |
| 2026-05-04 06:18 | 43.96904 | -99.45559 | 12512 ft | 172 kts | 284° |
| 2026-05-04 06:18 | 43.97127 | -99.47190 | 12502 ft | 172 kts | 284° |
| 2026-05-04 06:18 | 43.97347 | -99.48814 | 12509 ft | 170 kts | 284° |
| 2026-05-04 06:20 | 43.98874 | -99.60136 | 12507 ft | 171 kts | 284° |
| 2026-05-04 06:20 | 43.99093 | -99.61757 | 12505 ft | 170 kts | 284° |
| 2026-05-04 06:21 | 43.99957 | -99.68224 | 12498 ft | 171 kts | 284° |
| 2026-05-04 06:21 | 44.00175 | -99.69864 | 12506 ft | 170 kts | 284° |
| 2026-05-04 06:22 | 44.00388 | -99.71463 | 12502 ft | 171 kts | 284° |
| 2026-05-04 06:22 | 44.00605 | -99.73085 | 12495 ft | 171 kts | 284° |
| 2026-05-04 06:25 | 44.03377 | -99.94332 | 12482 ft | 171 kts | 284° |
| 2026-05-04 06:25 | 44.03598 | -99.95958 | 12483 ft | 171 kts | 285° |
| 2026-05-04 06:26 | 44.03821 | -99.97564 | 12464 ft | 172 kts | 285° |
| 2026-05-04 06:26 | 44.04051 | -99.99215 | 12465 ft | 172 kts | 285° |
| 2026-05-04 06:26 | 44.04271 | -100.00824 | 12465 ft | 171 kts | 284° |
| 2026-05-04 06:26 | 44.04489 | -100.02453 | 12464 ft | 172 kts | 284° |
| 2026-05-04 06:27 | 44.05328 | -100.09020 | 12438 ft | 172 kts | 284° |
| 2026-05-04 06:28 | 44.05537 | -100.10665 | 12420 ft | 173 kts | 284° |
| 2026-05-04 06:28 | 44.05749 | -100.12309 | 12419 ft | 173 kts | 284° |
| 2026-05-04 06:28 | 44.05963 | -100.13954 | 12406 ft | 173 kts | 284° |
| 2026-05-04 06:28 | 44.06177 | -100.15592 | 12409 ft | 172 kts | 284° |
| 2026-05-04 06:29 | 44.06391 | -100.17231 | 12400 ft | 172 kts | 284° |
| 2026-05-04 06:29 | 44.06605 | -100.18871 | 12392 ft | 173 kts | 284° |
| 2026-05-04 06:29 | 44.06818 | -100.20517 | 12370 ft | 173 kts | 284° |
| 2026-05-04 06:29 | 44.07031 | -100.22157 | 12378 ft | 172 kts | 284° |
| 2026-05-04 06:30 | 44.07244 | -100.23802 | 12368 ft | 173 kts | 284° |
| 2026-05-04 06:30 | 44.07458 | -100.25445 | 12368 ft | 173 kts | 284° |
| 2026-05-04 06:30 | 44.07668 | -100.27091 | 12361 ft | 173 kts | 283° |
| 2026-05-04 06:30 | 44.07876 | -100.28741 | 12366 ft | 173 kts | 283° |
| 2026-05-04 06:31 | 44.08082 | -100.30386 | 12354 ft | 173 kts | 283° |
| 2026-05-04 06:31 | 44.08291 | -100.32038 | 12344 ft | 173 kts | 283° |
| 2026-05-04 06:31 | 44.08501 | -100.33694 | 12311 ft | 174 kts | 283° |
| 2026-05-04 06:31 | 44.08714 | -100.35364 | 12287 ft | 176 kts | 284° |
| 2026-05-04 06:32 | 44.08927 | -100.37039 | 12268 ft | 176 kts | 283° |
| 2026-05-04 06:33 | 44.10430 | -100.48903 | 12103 ft | 178 kts | 283° |
| 2026-05-04 06:34 | 44.10642 | -100.50583 | 12082 ft | 179 kts | 283° |
| 2026-05-04 06:34 | 44.10856 | -100.52287 | 12055 ft | 179 kts | 283° |
| 2026-05-04 06:34 | 44.11071 | -100.53993 | 12031 ft | 179 kts | 283° |
| 2026-05-04 06:34 | 44.11285 | -100.55701 | 12011 ft | 179 kts | 283° |
| 2026-05-04 06:35 | 44.11499 | -100.57415 | 11934 ft | 181 kts | 283° |
| 2026-05-04 06:36 | 44.13022 | -100.69847 | 11503 ft | 189 kts | 283° |
| 2026-05-04 06:37 | 44.13254 | -100.71654 | 11444 ft | 190 kts | 283° |
| 2026-05-04 06:37 | 44.13490 | -100.73462 | 11381 ft | 190 kts | 283° |
| 2026-05-04 06:37 | 44.13725 | -100.75275 | 11333 ft | 190 kts | 283° |
| 2026-05-04 06:37 | 44.13956 | -100.77092 | 11278 ft | 190 kts | 283° |
| 2026-05-04 06:38 | 44.14181 | -100.78903 | 11221 ft | 190 kts | 283° |
| 2026-05-04 06:38 | 44.14404 | -100.80723 | 11166 ft | 191 kts | 283° |
| 2026-05-04 06:40 | 44.15960 | -100.93548 | 10797 ft | 192 kts | 283° |
| 2026-05-04 06:40 | 44.16188 | -100.95379 | 10740 ft | 192 kts | 283° |
| 2026-05-04 06:40 | 44.16419 | -100.97212 | 10689 ft | 192 kts | 283° |
| 2026-05-04 06:40 | 44.16645 | -100.99043 | 10636 ft | 192 kts | 283° |
| 2026-05-04 06:41 | 44.16869 | -101.00885 | 10579 ft | 193 kts | 283° |
| 2026-05-04 06:41 | 44.17090 | -101.02731 | 10517 ft | 194 kts | 283° |
| 2026-05-04 06:41 | 44.17310 | -101.04584 | 10460 ft | 194 kts | 283° |
| 2026-05-04 06:41 | 44.17530 | -101.06442 | 10394 ft | 195 kts | 283° |
| 2026-05-04 06:42 | 44.17750 | -101.08278 | 10349 ft | 194 kts | 283° |
| 2026-05-04 06:42 | 44.17976 | -101.10159 | 10287 ft | 195 kts | 283° |
| 2026-05-04 06:42 | 44.18200 | -101.12016 | 10250 ft | 194 kts | 283° |
| 2026-05-04 06:44 | 44.19758 | -101.25014 | 9895 ft | 196 kts | 282° |
| 2026-05-04 06:44 | 44.19973 | -101.26884 | 9852 ft | 195 kts | 283° |
| 2026-05-04 06:44 | 44.20194 | -101.28749 | 9795 ft | 195 kts | 283° |
| 2026-05-04 06:45 | 44.20418 | -101.30616 | 9732 ft | 196 kts | 283° |
| 2026-05-04 06:45 | 44.20650 | -101.32490 | 9674 ft | 196 kts | 283° |
| 2026-05-04 06:45 | 44.20885 | -101.34368 | 9632 ft | 196 kts | 282° |
| 2026-05-04 06:45 | 44.21109 | -101.36235 | 9575 ft | 196 kts | 282° |
| 2026-05-04 06:46 | 44.21316 | -101.38115 | 9522 ft | 196 kts | 281° |
| 2026-05-04 06:46 | 44.21513 | -101.39999 | 9476 ft | 196 kts | 281° |
| 2026-05-04 06:46 | 44.21720 | -101.41878 | 9449 ft | 196 kts | 282° |
| 2026-05-04 06:46 | 44.21939 | -101.43753 | 9381 ft | 197 kts | 282° |
| 2026-05-04 06:48 | 44.23368 | -101.56982 | 9046 ft | 198 kts | 281° |
| 2026-05-04 06:48 | 44.23572 | -101.58885 | 8989 ft | 198 kts | 281° |
| 2026-05-04 06:49 | 44.23770 | -101.60784 | 8947 ft | 199 kts | 281° |
| 2026-05-04 06:50 | 44.25155 | -101.74176 | 8608 ft | 200 kts | 281° |
| 2026-05-04 06:51 | 44.25349 | -101.76094 | 8566 ft | 200 kts | 281° |
| 2026-05-04 06:51 | 44.25476 | -101.77362 | 8560 ft | 199 kts | 281° |
| 2026-05-04 06:51 | 44.25736 | -101.79929 | 8495 ft | 199 kts | 281° |
| 2026-05-04 06:51 | 44.25865 | -101.81199 | 8464 ft | 200 kts | 281° |
| 2026-05-04 06:52 | 44.26062 | -101.83126 | 8426 ft | 201 kts | 281° |
| 2026-05-04 06:52 | 44.26256 | -101.85050 | 8392 ft | 201 kts | 281° |
| 2026-05-04 06:52 | 44.26450 | -101.86984 | 8360 ft | 201 kts | 281° |
| 2026-05-04 06:52 | 44.26646 | -101.88913 | 8326 ft | 201 kts | 281° |
| 2026-05-04 06:53 | 44.26844 | -101.90849 | 8281 ft | 202 kts | 281° |
| 2026-05-04 06:53 | 44.27043 | -101.92787 | 8249 ft | 202 kts | 281° |
| 2026-05-04 06:53 | 44.27241 | -101.94718 | 8242 ft | 201 kts | 281° |
| 2026-05-04 06:53 | 44.27439 | -101.96656 | 8200 ft | 201 kts | 281° |
| 2026-05-04 06:54 | 44.27632 | -101.98593 | 8161 ft | 202 kts | 281° |
| 2026-05-04 06:54 | 44.27822 | -102.00539 | 8131 ft | 203 kts | 281° |
| 2026-05-04 06:54 | 44.28014 | -102.02490 | 8113 ft | 202 kts | 281° |
| 2026-05-04 06:54 | 44.28209 | -102.04435 | 8059 ft | 203 kts | 281° |
| 2026-05-04 06:55 | 44.28413 | -102.06390 | 8033 ft | 204 kts | 281° |
| 2026-05-04 06:55 | 44.28617 | -102.08345 | 8007 ft | 204 kts | 281° |
| 2026-05-04 06:55 | 44.28817 | -102.10304 | 7976 ft | 204 kts | 281° |
| 2026-05-04 06:55 | 44.29010 | -102.12265 | 7935 ft | 204 kts | 280° |
| 2026-05-04 06:56 | 44.29200 | -102.14208 | 7905 ft | 204 kts | 280° |
| 2026-05-04 06:57 | 44.30538 | -102.27989 | 7685 ft | 205 kts | 281° |
| 2026-05-04 06:58 | 44.30741 | -102.29960 | 7654 ft | 205 kts | 281° |
| 2026-05-04 06:58 | 44.30937 | -102.31934 | 7616 ft | 206 kts | 281° |
| 2026-05-04 06:58 | 44.31131 | -102.33911 | 7594 ft | 206 kts | 280° |
| 2026-05-04 06:58 | 44.31321 | -102.35886 | 7589 ft | 205 kts | 280° |
| 2026-05-04 06:59 | 44.31510 | -102.37872 | 7537 ft | 206 kts | 280° |
| 2026-05-04 06:59 | 44.31699 | -102.39862 | 7525 ft | 206 kts | 280° |
| 2026-05-04 06:59 | 44.31892 | -102.41842 | 7470 ft | 206 kts | 280° |
| 2026-05-04 06:59 | 44.32089 | -102.43823 | 7430 ft | 207 kts | 280° |
| 2026-05-04 07:01 | 44.33407 | -102.57725 | 7301 ft | 206 kts | 280° |
| 2026-05-04 07:01 | 44.33595 | -102.59688 | 7268 ft | 207 kts | 280° |
| 2026-05-04 07:02 | 44.33786 | -102.61678 | 7241 ft | 207 kts | 280° |
| 2026-05-04 07:02 | 44.33976 | -102.63665 | 7227 ft | 207 kts | 279° |
| 2026-05-04 07:02 | 44.34168 | -102.65669 | 7208 ft | 206 kts | 279° |
| 2026-05-04 07:02 | 44.34351 | -102.67599 | 7404 ft | 194 kts | 279° |
| 2026-05-04 07:03 | 44.34517 | -102.69395 | 7730 ft | 180 kts | 279° |
| 2026-05-04 07:03 | 44.34668 | -102.71081 | 7993 ft | 171 kts | 280° |
| 2026-05-04 07:03 | 44.34812 | -102.72698 | 8215 ft | 165 kts | 280° |
| 2026-05-04 07:03 | 44.34952 | -102.74271 | 8425 ft | 161 kts | 280° |
| 2026-05-04 07:04 | 44.35089 | -102.75802 | 8629 ft | 157 kts | 280° |
| 2026-05-04 07:04 | 44.35230 | -102.77296 | 8821 ft | 154 kts | 281° |
| 2026-05-04 07:04 | 44.35373 | -102.78786 | 9012 ft | 154 kts | 281° |
| 2026-05-04 07:04 | 44.35511 | -102.80263 | 9192 ft | 152 kts | 281° |
| 2026-05-04 07:05 | 44.35648 | -102.81727 | 9339 ft | 152 kts | 281° |
| 2026-05-04 07:05 | 44.35785 | -102.83160 | 9512 ft | 150 kts | 281° |
| 2026-05-04 07:05 | 44.35926 | -102.84602 | 9680 ft | 149 kts | 281° |
| 2026-05-04 07:05 | 44.36064 | -102.86032 | 9849 ft | 148 kts | 281° |
| 2026-05-04 07:06 | 44.36331 | -102.88875 | 10137 ft | 147 kts | 281° |
| 2026-05-04 07:06 | 44.36461 | -102.90292 | 10279 ft | 147 kts | 281° |
| 2026-05-04 07:06 | 44.36590 | -102.91717 | 10401 ft | 148 kts | 281° |
| 2026-05-04 07:07 | 44.36721 | -102.93161 | 10475 ft | 152 kts | 280° |
| 2026-05-04 07:08 | 44.37859 | -103.05391 | 9918 ft | 197 kts | 280° |
| 2026-05-04 07:09 | 44.38031 | -103.07289 | 9905 ft | 195 kts | 280° |
| 2026-05-04 07:09 | 44.38200 | -103.09162 | 9891 ft | 194 kts | 280° |
| 2026-05-04 07:09 | 44.38365 | -103.11027 | 9892 ft | 192 kts | 279° |
| 2026-05-04 07:09 | 44.38528 | -103.12874 | 9886 ft | 191 kts | 280° |
| 2026-05-04 07:10 | 44.38687 | -103.14714 | 9883 ft | 190 kts | 279° |
| 2026-05-04 07:10 | 44.38848 | -103.16548 | 9871 ft | 190 kts | 280° |
| 2026-05-04 07:12 | 44.40004 | -103.29407 | 9869 ft | 191 kts | 279° |
| 2026-05-04 07:12 | 44.40157 | -103.31227 | 9876 ft | 191 kts | 279° |
| 2026-05-04 07:12 | 44.40316 | -103.33071 | 9886 ft | 191 kts | 279° |
| 2026-05-04 07:12 | 44.40479 | -103.34913 | 9894 ft | 191 kts | 279° |
| 2026-05-04 07:13 | 44.40644 | -103.36751 | 9916 ft | 189 kts | 279° |
| 2026-05-04 07:13 | 44.40806 | -103.38570 | 9925 ft | 188 kts | 279° |
| 2026-05-04 07:13 | 44.40968 | -103.40384 | 9933 ft | 188 kts | 279° |
| 2026-05-04 07:14 | 44.41606 | -103.47667 | 9981 ft | 188 kts | 279° |
| 2026-05-04 07:14 | 44.41764 | -103.49486 | 9989 ft | 188 kts | 279° |
| 2026-05-04 07:15 | 44.41922 | -103.51310 | 9995 ft | 188 kts | 279° |
| 2026-05-04 07:15 | 44.42081 | -103.53126 | 10001 ft | 188 kts | 279° |
| 2026-05-04 07:15 | 44.42238 | -103.54946 | 10005 ft | 188 kts | 279° |
| 2026-05-04 07:15 | 44.42391 | -103.56762 | 10010 ft | 188 kts | 279° |
| 2026-05-04 07:16 | 44.42546 | -103.58577 | 10021 ft | 188 kts | 279° |
| 2026-05-04 07:16 | 44.42701 | -103.60390 | 9970 ft | 188 kts | 279° |
| 2026-05-04 07:16 | 44.42860 | -103.62199 | 9968 ft | 188 kts | 279° |
| 2026-05-04 07:16 | 44.43018 | -103.64012 | 9975 ft | 188 kts | 279° |
| 2026-05-04 07:17 | 44.43176 | -103.65835 | 9997 ft | 189 kts | 279° |
| 2026-05-04 07:17 | 44.43333 | -103.67658 | 10019 ft | 188 kts | 279° |
| 2026-05-04 07:17 | 44.43484 | -103.69491 | 10034 ft | 191 kts | 278° |
| 2026-05-04 07:17 | 44.43629 | -103.71346 | 10062 ft | 192 kts | 278° |
| 2026-05-04 07:18 | 44.43778 | -103.73208 | 10090 ft | 192 kts | 278° |
| 2026-05-04 07:18 | 44.43924 | -103.75053 | 10108 ft | 191 kts | 279° |
| 2026-05-04 07:18 | 44.44083 | -103.76902 | 10127 ft | 192 kts | 279° |
| 2026-05-04 07:18 | 44.44253 | -103.78762 | 10124 ft | 193 kts | 279° |
| 2026-05-04 07:19 | 44.44429 | -103.80622 | 10133 ft | 193 kts | 279° |
| 2026-05-04 07:19 | 44.44597 | -103.82472 | 10152 ft | 191 kts | 279° |
| 2026-05-04 07:19 | 44.44750 | -103.84308 | 10162 ft | 189 kts | 278° |
| 2026-05-04 07:19 | 44.44894 | -103.86148 | 10178 ft | 191 kts | 278° |
| 2026-05-04 07:20 | 44.45038 | -103.87999 | 10190 ft | 191 kts | 278° |
| 2026-05-04 07:20 | 44.45173 | -103.89809 | 10202 ft | 189 kts | 279° |
| 2026-05-04 07:20 | 44.45327 | -103.91641 | 10217 ft | 190 kts | 279° |
| 2026-05-04 07:20 | 44.45489 | -103.93475 | 10243 ft | 192 kts | 279° |
| 2026-05-04 07:22 | 44.46600 | -104.06448 | 10342 ft | 194 kts | 277° |
| 2026-05-04 07:22 | 44.46746 | -104.08319 | 10342 ft | 193 kts | 277° |
| 2026-05-04 07:23 | 44.46880 | -104.10188 | 10369 ft | 193 kts | 277° |
| 2026-05-04 07:23 | 44.47017 | -104.12058 | 10385 ft | 193 kts | 277° |
| 2026-05-04 07:23 | 44.47165 | -104.13931 | 10406 ft | 194 kts | 277° |
| 2026-05-04 07:23 | 44.47318 | -104.15804 | 10413 ft | 194 kts | 278° |
| 2026-05-04 07:24 | 44.47476 | -104.17676 | 10437 ft | 194 kts | 278° |
| 2026-05-04 07:24 | 44.47627 | -104.19543 | 10438 ft | 192 kts | 277° |
| 2026-05-04 07:24 | 44.47777 | -104.21401 | 10444 ft | 192 kts | 277° |
| 2026-05-04 07:24 | 44.47924 | -104.23257 | 10456 ft | 192 kts | 278° |
| 2026-05-04 07:25 | 44.48074 | -104.25125 | 10464 ft | 193 kts | 278° |
| 2026-05-04 07:26 | 44.49115 | -104.38170 | 10523 ft | 194 kts | 278° |
| 2026-05-04 07:27 | 44.49260 | -104.40044 | 10525 ft | 193 kts | 278° |
| 2026-05-04 07:27 | 44.49410 | -104.41909 | 10533 ft | 193 kts | 278° |
| 2026-05-04 07:27 | 44.49563 | -104.43781 | 10551 ft | 194 kts | 277° |
| 2026-05-04 07:27 | 44.49709 | -104.45659 | 10572 ft | 194 kts | 277° |
| 2026-05-04 07:28 | 44.49833 | -104.47534 | 10591 ft | 193 kts | 277° |
| 2026-05-04 07:28 | 44.49961 | -104.49412 | 10615 ft | 193 kts | 277° |
| 2026-05-04 07:28 | 44.50104 | -104.51281 | 10638 ft | 193 kts | 277° |
| 2026-05-04 07:28 | 44.50255 | -104.53150 | 10653 ft | 193 kts | 278° |
| 2026-05-04 07:29 | 44.50411 | -104.55015 | 10679 ft | 193 kts | 278° |
| 2026-05-04 07:29 | 44.50566 | -104.56884 | 10704 ft | 193 kts | 278° |
| 2026-05-04 07:29 | 44.50719 | -104.58743 | 10727 ft | 192 kts | 278° |
| 2026-05-04 07:29 | 44.50866 | -104.60600 | 10743 ft | 191 kts | 278° |
| 2026-05-04 07:30 | 44.51009 | -104.62450 | 10758 ft | 191 kts | 278° |
| 2026-05-04 07:30 | 44.51148 | -104.64294 | 10786 ft | 190 kts | 277° |
| 2026-05-04 07:30 | 44.51284 | -104.66136 | 10817 ft | 190 kts | 277° |
| 2026-05-04 07:30 | 44.51423 | -104.67971 | 10836 ft | 189 kts | 277° |
| 2026-05-04 07:31 | 44.51561 | -104.69805 | 10851 ft | 189 kts | 278° |
| 2026-05-04 07:31 | 44.51698 | -104.71634 | 10858 ft | 188 kts | 278° |
| 2026-05-04 07:33 | 44.52667 | -104.84304 | 10800 ft | 187 kts | 278° |
| 2026-05-04 07:33 | 44.52802 | -104.86136 | 10801 ft | 187 kts | 277° |
| 2026-05-04 07:33 | 44.52931 | -104.87946 | 10805 ft | 187 kts | 277° |
| 2026-05-04 07:33 | 44.53061 | -104.89737 | 10813 ft | 187 kts | 277° |
| 2026-05-04 07:34 | 44.53196 | -104.91551 | 10820 ft | 187 kts | 277° |
| 2026-05-04 07:34 | 44.53330 | -104.93367 | 10822 ft | 187 kts | 277° |
| 2026-05-04 07:34 | 44.53465 | -104.95183 | 10829 ft | 188 kts | 277° |
| 2026-05-04 07:34 | 44.53599 | -104.97006 | 10839 ft | 188 kts | 277° |
| 2026-05-04 07:35 | 44.53732 | -104.98827 | 10856 ft | 188 kts | 277° |
| 2026-05-04 07:35 | 44.53868 | -105.00644 | 10875 ft | 188 kts | 277° |
| 2026-05-04 07:35 | 44.54002 | -105.02464 | 10894 ft | 188 kts | 277° |
| 2026-05-04 07:35 | 44.54137 | -105.04288 | 10924 ft | 188 kts | 277° |
| 2026-05-04 07:36 | 44.54272 | -105.06119 | 10958 ft | 189 kts | 277° |
| 2026-05-04 07:36 | 44.54402 | -105.07945 | 10992 ft | 188 kts | 277° |
| 2026-05-04 07:38 | 44.55622 | -105.20603 | 11223 ft | 187 kts | 284° |
| 2026-05-04 07:38 | 44.55913 | -105.22380 | 11247 ft | 187 kts | 284° |
| 2026-05-04 07:38 | 44.56212 | -105.24159 | 11261 ft | 187 kts | 285° |
| 2026-05-04 07:38 | 44.56515 | -105.25936 | 11283 ft | 187 kts | 285° |
| 2026-05-04 07:39 | 44.56820 | -105.27712 | 11306 ft | 187 kts | 285° |
| 2026-05-04 07:39 | 44.57127 | -105.29488 | 11329 ft | 188 kts | 285° |
| 2026-05-04 07:39 | 44.57328 | -105.30663 | 11340 ft | 188 kts | 285° |
| 2026-05-04 07:39 | 44.57633 | -105.32446 | 11353 ft | 187 kts | 285° |
| 2026-05-04 07:40 | 44.58034 | -105.34800 | 11360 ft | 187 kts | 285° |
| 2026-05-04 07:40 | 44.58334 | -105.36576 | 11359 ft | 187 kts | 285° |
| 2026-05-04 07:40 | 44.58633 | -105.38344 | 11369 ft | 186 kts | 285° |
| 2026-05-04 07:40 | 44.58835 | -105.39536 | 11375 ft | 186 kts | 285° |
| 2026-05-04 07:41 | 44.59133 | -105.41303 | 11382 ft | 186 kts | 284° |
| 2026-05-04 07:41 | 44.59526 | -105.43651 | 11399 ft | 187 kts | 284° |
| 2026-05-04 07:41 | 44.59727 | -105.44848 | 11411 ft | 187 kts | 284° |
| 2026-05-04 07:41 | 44.60023 | -105.46625 | 11427 ft | 187 kts | 284° |
| 2026-05-04 07:42 | 44.60320 | -105.48406 | 11445 ft | 187 kts | 284° |
| 2026-05-04 07:42 | 44.60617 | -105.50186 | 11455 ft | 187 kts | 285° |
| 2026-05-04 07:42 | 44.60909 | -105.51939 | 11466 ft | 187 kts | 285° |
| 2026-05-04 07:42 | 44.61208 | -105.53719 | 11477 ft | 187 kts | 285° |
| 2026-05-04 07:43 | 44.61508 | -105.55499 | 11485 ft | 187 kts | 285° |
| 2026-05-04 07:43 | 44.61807 | -105.57283 | 11498 ft | 188 kts | 284° |
| 2026-05-04 07:43 | 44.62104 | -105.59065 | 11512 ft | 187 kts | 285° |
| 2026-05-04 07:43 | 44.62399 | -105.60846 | 11521 ft | 187 kts | 284° |
| 2026-05-04 07:44 | 44.62694 | -105.62628 | 11538 ft | 187 kts | 284° |
| 2026-05-04 07:44 | 44.62989 | -105.64410 | 11555 ft | 187 kts | 285° |
| 2026-05-04 07:44 | 44.63284 | -105.66188 | 11568 ft | 187 kts | 285° |
| 2026-05-04 07:44 | 44.63579 | -105.67971 | 11578 ft | 188 kts | 285° |
| 2026-05-04 07:45 | 44.63874 | -105.69755 | 11578 ft | 187 kts | 285° |
| 2026-05-04 07:45 | 44.64167 | -105.71532 | 11576 ft | 187 kts | 285° |
| 2026-05-04 07:45 | 44.64464 | -105.73313 | 11569 ft | 187 kts | 285° |
| 2026-05-04 07:45 | 44.64760 | -105.75091 | 11562 ft | 187 kts | 285° |
| 2026-05-04 07:46 | 44.65053 | -105.76870 | 11567 ft | 187 kts | 284° |
| 2026-05-04 07:46 | 44.65330 | -105.78657 | 11575 ft | 187 kts | 284° |
| 2026-05-04 07:46 | 44.65612 | -105.80443 | 11578 ft | 187 kts | 284° |
| 2026-05-04 07:46 | 44.65897 | -105.82200 | 11577 ft | 187 kts | 285° |
| 2026-05-04 07:47 | 44.66191 | -105.83978 | 11582 ft | 187 kts | 285° |
| 2026-05-04 07:47 | 44.66491 | -105.85751 | 11585 ft | 187 kts | 285° |
| 2026-05-04 07:47 | 44.66790 | -105.87530 | 11583 ft | 187 kts | 283° |
| 2026-05-04 07:49 | 44.68065 | -106.00294 | 11674 ft | 189 kts | 279° |
| 2026-05-04 07:49 | 44.68232 | -106.02126 | 11693 ft | 189 kts | 279° |
| 2026-05-04 07:49 | 44.68401 | -106.03953 | 11710 ft | 189 kts | 279° |
| 2026-05-04 07:50 | 44.68574 | -106.05781 | 11726 ft | 189 kts | 279° |
| 2026-05-04 07:50 | 44.68750 | -106.07612 | 11733 ft | 189 kts | 279° |
| 2026-05-04 07:50 | 44.68918 | -106.09443 | 11727 ft | 189 kts | 279° |
| 2026-05-04 07:50 | 44.69080 | -106.11273 | 11736 ft | 189 kts | 280° |
| 2026-05-04 07:51 | 44.69252 | -106.13128 | 11635 ft | 194 kts | 280° |
| 2026-05-04 07:51 | 44.69439 | -106.15025 | 11465 ft | 202 kts | 280° |
| 2026-05-04 07:51 | 44.69644 | -106.17005 | 11307 ft | 208 kts | 280° |
| 2026-05-04 07:51 | 44.69851 | -106.19035 | 11121 ft | 212 kts | 280° |
| 2026-05-04 07:52 | 44.70051 | -106.21116 | 10918 ft | 216 kts | 279° |
| 2026-05-04 07:52 | 44.70244 | -106.23233 | 10670 ft | 222 kts | 279° |
| 2026-05-04 07:52 | 44.70440 | -106.25420 | 10376 ft | 228 kts | 279° |
| 2026-05-04 07:52 | 44.70640 | -106.27643 | 10136 ft | 229 kts | 279° |
| 2026-05-04 07:53 | 44.70843 | -106.29871 | 9930 ft | 231 kts | 278° |
| 2026-05-04 07:54 | 44.72258 | -106.45244 | 7989 ft | 226 kts | 277° |
| 2026-05-04 07:55 | 44.72469 | -106.47465 | 7719 ft | 225 kts | 277° |
| 2026-05-04 07:55 | 44.72654 | -106.49596 | 7569 ft | 219 kts | 276° |
| 2026-05-04 07:55 | 44.72831 | -106.51702 | 7418 ft | 214 kts | 276° |
| 2026-05-04 07:55 | 44.72997 | -106.53744 | 7291 ft | 207 kts | 277° |
| 2026-05-04 07:56 | 44.73154 | -106.55746 | 7125 ft | 206 kts | 278° |
| 2026-05-04 07:56 | 44.73336 | -106.57734 | 6959 ft | 204 kts | 275° |
| 2026-05-04 07:56 | 44.73277 | -106.59739 | 6820 ft | 207 kts | 265° |
| 2026-05-04 07:56 | 44.73108 | -106.61731 | 6646 ft | 203 kts | 263° |
| 2026-05-04 07:57 | 44.72912 | -106.63683 | 6489 ft | 201 kts | 263° |
| 2026-05-04 07:57 | 44.72711 | -106.65625 | 6321 ft | 200 kts | 262° |
| 2026-05-04 07:57 | 44.72513 | -106.67557 | 6181 ft | 198 kts | 262° |
| 2026-05-04 07:57 | 44.72319 | -106.69441 | 6064 ft | 191 kts | 262° |
| 2026-05-04 07:58 | 44.72133 | -106.71253 | 5964 ft | 184 kts | 262° |
| 2026-05-04 07:58 | 44.71954 | -106.72999 | 5896 ft | 178 kts | 262° |
| 2026-05-04 07:58 | 44.71778 | -106.74704 | 5787 ft | 174 kts | 262° |
| 2026-05-04 07:58 | 44.71603 | -106.76360 | 5728 ft | 169 kts | 262° |
| 2026-05-04 07:59 | 44.71432 | -106.77981 | 5672 ft | 166 kts | 262° |
| 2026-05-04 07:59 | 44.71266 | -106.79580 | 5598 ft | 165 kts | 262° |
| 2026-05-04 07:59 | 44.71104 | -106.81169 | 5518 ft | 164 kts | 262° |
| 2026-05-04 07:59 | 44.70943 | -106.82752 | 5433 ft | 163 kts | 262° |
| 2026-05-04 08:00 | 44.70785 | -106.84329 | 5351 ft | 163 kts | 262° |
| 2026-05-04 08:00 | 44.70625 | -106.85894 | 5289 ft | 161 kts | 262° |
| 2026-05-04 08:00 | 44.70470 | -106.87418 | 5221 ft | 158 kts | 262° |
| 2026-05-04 08:02 | 44.71851 | -106.95159 | 4739 ft | 119 kts | 335° |
| 2026-05-04 08:02 | 44.72616 | -106.95615 | 4564 ft | 119 kts | 333° |
| 2026-05-04 08:02 | 44.73358 | -106.96106 | 4407 ft | 117 kts | 332° |
| 2026-05-04 08:03 | 44.74087 | -106.96538 | 4260 ft | 110 kts | 333° |
| 2026-05-04 08:03 | 44.74788 | -106.96973 | 4128 ft | 112 kts | 331° |
| 2026-05-04 08:03 | 44.75505 | -106.97428 | 4002 ft | 114 kts | 333° |
| 2026-05-04 08:03 | 44.76196 | -106.97848 | 3978 ft | 95 kts | 335° |
| 2026-05-04 08:04 | 44.76691 | -106.98153 | 3983 ft | 64 kts | 335° |
| 2026-05-04 08:04 | 44.76969 | -106.98327 | 3988 ft | 29 kts | 334° |
| 2026-05-04 08:04 | 44.77114 | -106.98329 | 3988 ft | 20 kts | 57° |
| 2026-05-04 08:04 | 44.77169 | -106.98140 | 3983 ft | 22 kts | 69° |
| 2026-05-04 08:05 | 44.77230 | -106.97934 | 3994 ft | 23 kts | 69° |
| 2026-05-04 08:05 | 44.77293 | -106.97723 | 3991 ft | 24 kts | 66° |
| 2026-05-04 08:05 | 44.77354 | -106.97508 | 3995 ft | 24 kts | 69° |
| 2026-05-04 08:05 | 44.77415 | -106.97295 | 4000 ft | 22 kts | 69° |
| 2026-05-04 08:06 | 44.77374 | -106.97156 | 4005 ft | 8 kts | 135° |
| 2026-05-04 08:06 | 44.77371 | -106.97119 | 4005 ft | 0 kts | 77° |